Faro, Canada
Current Conditions -  °F | °C
As of 1:00 PM on Friday 28 Nov 2014 (Local Time) from CYXY Reporting Station
Haze Haze  
Wind Chill: -30°   Ceiling: 800
Heat Index: -8°   Visibility: 6mi
Dew Point: -13°   Wind: 16mph
Humidity: 77%   Direction: 180°S
Pressure: 30.16"   Gusts: NA
Location:  62.19°N, 133.37°W
Report Text: CYXY 282100Z 18014KT 6SM BR BKN008 M22/M25 A3016 RMK SF7 SLP289
Loading
Personal Weather Stations






























Interactive Weather Map New forecast layout! Learn more

10-Day Weather Forecast

Advertisements
Track Severe Weather on mobile